Airfield :
LOGIN :

Register | Disclaimer

   EN    FR    IT 

 










Legend :    VFR   Marginal VFR   IFR   Intensive IFR   Very Intensive IFR
Visi :
Ceiling :
>= 8 km
>= 3000ft
5 to 8 km
1000 to 3000 ft
1500m to 5 km
500 to 1000 ft
800 to 1500m
200 to 500 ft
< 800m
< 200 ft
Symbols :   Thunderstorms  Fog  Heavy snow  Heavy precipitations  Wind > 20 kt
SIGMETs :     Misc.  Thunderstorms  Icing  Turbulence  Mountain Waves  Volcanic Ashes






- Airport Elevation : 42 ft
- IATA code : KGD


UMKK - Khrabrava - Kaliningrad

CURRENT METAR :
  • 041500Z 11004MPS 080V140 7000 OVC008 01/00 Q1027 R06/290095 NOSIG RMK QFE769/1026

EXPIRED METARs :
  • 041430Z 11005MPS 080V140 7000 OVC008 01/00 Q1027 R06/290095 NOSIG RMK QFE769/1026
  • 041400Z 11005MPS 7000 OVC008 01/00 Q1027 R06/290095 NOSIG RMK QFE769/1026
  • 041330Z 11005MPS 8000 OVC008 01/00 Q1027 R06/290095 NOSIG RMK QFE769/1026
  • 041300Z 11005MPS 8000 OVC008 01/M00 Q1027 R06/290095 NOSIG RMK QFE769/1026
  • 041230Z 11005MPS 7000 OVC007 01/M00 Q1027 R06/290095 NOSIG RMK QFE769/1026

TAF TAF UMKK
Valid from the 04 at 15:00 until the 05 at 15:00 UTC


041356Z 0415/0515 10005G10MPS 6000 OVC010
TEMPO 0415/0421 2800 -DZRA BR BKN005
TEMPO 0421/0503 13005G10MPS 3100 BR BKN007
BECMG 0504/0506 BKN016
TEMPO 0506/0515 OVC010



MET'MAP, your aeronautical weather chart ! - Copyright ORBIFLY December 2007 - Disclaimer

ORBIFLY MET'MAP TEAM :

Programming & Development : Alexandra Zaïnal
Original concept : Baudouin d'Aumeries
Technical & hardware support : Manuel Goepfert
Assistance : Marc-Olivier Méhu




SOURCES & CREDITS :

   NOAA